Home > Products > Valid Products > TAF

000
FTUS43 KIND 011700 RRA
TAFIND
TAF
KIND 011753Z 0118/0224 14009KT 3SM -SHRA BR OVC030
     FM012300 15006KT 2SM -RASN BR OVC004
     FM020200 29012G20KT 2SM -SN BR OVC004
     FM020600 32017G24KT P6SM -SHSN OVC035
     FM021500 31015G22KT P6SM OVC025
     FM021800 29012KT P6SM SCT030 BKN150=



000
FTUS43 KIND 011700 RRA
TAFLAF
TAF
KLAF 011753Z 0118/0218 10011KT 1SM -SN OVC004
      TEMPO 0121/0201 1/2SM SN
     FM020200 36014G22KT 1 1/2SM -SN BLSN OVC004
     FM020500 35018G24KT 4SM -SHSN BLSN OVC030
     FM021400 32012G21KT P6SM SCT025 OVC150
     FM021700 31010KT P6SM SCT025 OVC150=



000
FTUS43 KIND 011400 AAA
TAFLAF
TAF AMD
KLAF 011435Z 0115/0212 11007KT 3SM -SN BR BKN009 OVC035
     FM011600 10011KT 1SM -SN OVC005
      TEMPO 0121/0201 1/2SM SN
     FM020200 36014G23KT 1 1/2SM -SN BLSN OVC007
     FM020600 35014G22KT 6SM -SHSN BLSN OVC020=



000
FTUS43 KIND 011400 AAA
TAFIND
TAF AMD
KIND 011429Z 0114/0218 13007KT 4SM -SNRA BKN035 OVC060
     FM011600 13011KT 2SM -RASN BR BKN020 OVC040
     FM011800 13011KT 2SM -RASN BR BKN010 OVC015
     FM012200 15006KT 1SM -RASN BR OVC004
     FM020200 34013G20KT 2SM -SN BR OVC007
     FM020600 33014G22KT 6SM -SHSN OVC020=



000
FTUS43 KIND 011100
TAFIND
TAF
KIND 011126Z 0112/0218 12005KT 6SM BR VCSH BKN035 OVC060
     FM011600 12011KT 4SM -RASN BR BKN020 OVC040
     FM011800 13011KT 2SM -RASN BR BKN010 OVC015
     FM012200 15006KT 1SM -RASN BR OVC004
     FM020200 34013G20KT 2SM -SN BR OVC007
     FM020600 33014G22KT 6SM -SHSN OVC020=



000
FTUS43 KIND 011100
TAFLAF
TAF
KLAF 011126Z 0112/0212 11007KT 3SM -SN BR BKN015 OVC030
     FM011500 10011KT 1SM -SN OVC005
      TEMPO 0121/0201 1/2SM SN
     FM020200 36014G23KT 1 1/2SM -SN BLSN OVC007
     FM020600 35014G22KT 6SM -SHSN BLSN OVC020
      AMD LTD TO CLD VIS AND WIND TIL 011400=



000
FTUS43 KIND 011000 AAA
TAFLAF
TAF AMD
KLAF 011011Z 0110/0206 11007KT 3SM -SN BR BKN015 OVC030
     FM011600 10011KT 1/2SM SN VV004
     FM012200 08010KT 1SM -SN BR OVC005
     FM020200 36014G21KT 1 1/2SM -SN OVC007
      AMD LTD TO CLD VIS AND WIND TIL 011400=



000
FTUS43 KIND 010800 AAA
TAFIND
TAF AMD
KIND 010825Z 0108/0212 14005KT 3SM BR VCSH BKN030 OVC050
     FM011600 12011KT 3SM -RASN BR BKN015 OVC040
     FM011800 13011KT 1 1/2SM -RASN BR BKN007 OVC015
     FM012200 15006KT 3/4SM -RASN BR OVC004
     FM020200 34013KT 2SM -SN BR OVC007=



000
FTUS43 KIND 010500
TAFLAF
TAF
KLAF 010536Z 0106/0206 17005KT 2SM -SN BR SCT005 BKN012 OVC025
     FM010900 11007KT 1 1/2SM -SN BR OVC004
      TEMPO 0109/0112 3/4SM -SN BR
     FM011600 10011KT 1/2SM SN VV004
     FM012200 08010KT 1SM -SN BR OVC005
     FM020200 36014G21KT 1 1/2SM -SN OVC007
      AMD LTD TO CLD VIS AND WIND TIL 011400=



000
FTUS43 KIND 010500
TAFIND
TAF
KIND 010536Z 0106/0212 14005KT 4SM BR BKN025 OVC050
      TEMPO 0108/0111 1 1/2SM -RASN BKN015 OVC050
     FM011600 12011KT 3SM -RASN BR BKN015 OVC040
     FM011800 13011KT 1 1/2SM -RASN BR BKN007 OVC015
     FM012200 15006KT 3/4SM -RASN BR OVC004
     FM020200 34013KT 2SM -SN BR OVC007=



000
FTUS43 KIND 010200 AAA
TAFLAF
TAF AMD
KLAF 010223Z 0102/0124 18005KT 4SM -SN SCT005 OVC020
      TEMPO 0102/0106 1 1/2SM -SN BR BKN005 OVC020
     FM010800 13005KT 4SM -SN BR BKN015 OVC040
     FM011000 11007KT 3/4SM -SN BR BKN007 OVC015
     FM011500 10011KT 1/2SM SN VV005
     FM012200 08010KT 3/4SM -SN BR OVC004
      AMD LTD TO CLD VIS AND WIND TIL 011400=



000
FTUS43 KIND 010200 AAA
TAFLAF
TAF AMD
KLAF 010223Z 0102/0124 18005KT 4SM -SN SCT005 OVC020
      TEMPO 0102/0106 1 1/2SM -SN BR BKN005 OVC020
     FM010800 13005KT 4SM -SN BR BKN015 OVC040
     FM011000 11007KT 3/4SM -SN BR BKN007 OVC015
     FM011500 10011KT 1/2SM SN VV005
     FM012200 08010KT 3/4SM -SN BR OVC004
      AMD LTD TO CLD VIS AND WIND TIL 011400=



000
FTUS43 KIND 010200 AAB
TAFIND
TAF AMD
KIND 010217Z 0102/0206 20005KT 5SM -RASN SCT025 OVC050
      TEMPO 0102/0105 2SM -RASN BKN025 OVC050
     FM010700 14006KT P6SM SCT025 OVC050
     FM011500 12010KT 3SM -RASN BR BKN015 OVC040
     FM011800 13011KT 2SM -RASN BR BKN007 OVC015
     FM012200 13006KT 3/4SM -RASN BR OVC004=



000
FTUS43 KIND 010200 AAB
TAFIND
TAF AMD
KIND 010217Z 0102/0206 20005KT 5SM -RASN SCT025 OVC050
      TEMPO 0102/0105 2SM -RASN BKN025 OVC050
     FM010700 14006KT P6SM SCT025 OVC050
     FM011500 12010KT 3SM -RASN BR BKN015 OVC040
     FM011800 13011KT 2SM -RASN BR BKN007 OVC015
     FM012200 13006KT 3/4SM -RASN BR OVC004=



000
FTUS43 KIND 010000 AAA
TAFIND
TAF AMD
KIND 010049Z 0101/0206 22008KT P6SM SCT025 OVC050
      TEMPO 0101/0104 2SM -RASN BKN025 OVC050
     FM010700 14006KT P6SM SCT025 OVC050
     FM011500 12010KT 3SM -RASN BR BKN015 OVC040
     FM011800 13011KT 2SM -RASN BR BKN007 OVC015
     FM012200 13006KT 3/4SM -RASN BR OVC004=



000
FTUS43 KIND 010000 AAA
TAFIND
TAF AMD
KIND 010049Z 0101/0206 22008KT P6SM SCT025 OVC050
      TEMPO 0101/0104 2SM -RASN BKN025 OVC050
     FM010700 14006KT P6SM SCT025 OVC050
     FM011500 12010KT 3SM -RASN BR BKN015 OVC040
     FM011800 13011KT 2SM -RASN BR BKN007 OVC015
     FM012200 13006KT 3/4SM -RASN BR OVC004=



000
FTUS43 KIND 312300
TAFIND
TAF
KIND 312327Z 0100/0206 22008KT P6SM SCT025 OVC050
      TEMPO 0100/0104 3SM -RASN BKN025 OVC050
     FM010700 14006KT P6SM SCT025 OVC050
     FM011500 12010KT 3SM -RASN BR BKN015 OVC040
     FM011800 13011KT 2SM -RASN BR BKN007 OVC015
     FM012200 13006KT 3/4SM -RASN BR OVC004=



000
FTUS43 KIND 312300
TAFLAF
TAF
KLAF 312327Z 0100/0124 22009KT P6SM SCT025 OVC050
     FM010100 21007KT 4SM -SN BR BKN015 OVC040
      TEMPO 0102/0106 3/4SM -SN BR VV008
     FM010800 13005KT 4SM -SN BR BKN015 OVC040
     FM011000 11007KT 3/4SM -SN BR BKN007 OVC015
     FM011500 10011KT 1/2SM SN VV005
     FM012200 08010KT 3/4SM -SN BR OVC004
      AMD LTD TO CLD VIS AND WIND 0102/0114=



000
FTUS43 KIND 312000 AAA
TAFIND
TAF AMD
KIND 312038Z 3121/0124 22010KT P6SM BKN080 BKN200
     FM010000 21006KT 5SM -RASN SCT025 OVC050
     FM010300 15005KT 3SM -RASN OVC020
     FM011100 11009KT 3SM -SN OVC025
     FM011500 09009KT 1/2SM SN FG OVC006
     FM011800 07011KT 1SM RASN BR OVC006=



000
FTUS43 KIND 311700 RRA
TAFLAF
TAF
KLAF 311753Z 3118/0118 21008KT P6SM BKN090
     FM312100 23007KT P6SM SCT030 OVC080
     FM010000 22005KT 4SM -RASN SCT025 OVC050
     FM010400 16003KT 2SM -SN BR OVC020
     FM010800 10004KT 3/4SM -SN BR OVC008
     FM011300 09009KT 1/2SM SN FG OVC005=



000
FTUS43 KIND 311700 RRA
TAFIND
TAF
KIND 311753Z 3118/0124 22010KT P6SM BKN080 BKN200
     FM010000 21006KT 5SM -RASN SCT025 OVC050
     FM010300 15005KT 3SM -RASN OVC020
     FM011100 11009KT 3SM -SN OVC025
     FM011500 09009KT 1/2SM SN FG OVC006
     FM011800 07011KT 1SM RASN BR OVC006=



000
FTUS43 KIND 311400 AAA
TAFIND
TAF AMD
KIND 311410Z 3114/0118 19006KT P6SM BKN250
     FM311600 22010KT P6SM SCT090 BKN200
     FM312100 22010KT P6SM SCT030 OVC080
     FM010100 21008KT 5SM -RASN SCT025 OVC050
     FM010300 17005KT 3SM -RASN OVC020
     FM011100 11007KT 3SM -SN OVC025=



000
FTUS43 KIND 311100
TAFLAF
TAF
KLAF 311130Z 3112/0112 21006KT P6SM BKN090
     FM311700 21008KT P6SM SCT050 OVC080
     FM010000 19006KT 3SM -RASN SCT025 OVC050
     FM010400 17003KT 1 1/2SM -SN BR OVC015
     FM010800 10004KT 3/4SM -SN BR OVC008
      AMD LTD TO CLD VIS AND WIND TIL 311400=



000
FTUS43 KIND 311100
TAFIND
TAF
KIND 311130Z 3112/0118 20006KT P6SM SCT250
     FM311600 22010KT P6SM SCT090 BKN200
     FM312100 22010KT P6SM SCT030 OVC080
     FM010100 21008KT 5SM -RASN SCT025 OVC050
     FM010300 17005KT 3SM -RASN OVC020
     FM011100 11007KT 3SM -SN OVC025=



000
FTUS43 KIND 310800 AAA
TAFIND
TAF AMD
KIND 310844Z 3109/0112 17003KT P6SM SKC
     FM311400 22010KT P6SM BKN250
     FM312100 22010KT P6SM OVC080
     FM010100 21008KT 4SM -SN SCT025 OVC050
      TEMPO 0101/0104 1 1/2SM -SN BKN025 OVC040=



000
FTUS43 KIND 310500
TAFIND
TAF
KIND 310527Z 3106/0112 17004KT P6SM FEW250
     FM311400 22010KT P6SM BKN250
     FM312100 22010KT P6SM OVC080
     FM010100 21008KT 4SM -SN SCT025 OVC050
      TEMPO 0101/0104 1 1/2SM -SN BKN025 OVC040=



000
FTUS43 KIND 310500
TAFLAF
TAF
KLAF 310527Z 3106/0106 19003KT P6SM FEW250
     FM311400 21010KT P6SM BKN250
     FM312100 22010KT P6SM OVC080
     FM010100 21008KT 4SM -SN SCT025 OVC050
      TEMPO 0101/0105 1SM -SN BKN015 OVC040
      AMD LTD TO CLD VIS AND WIND TIL 311400=



000
FTUS43 KIND 310200 AAA
TAFIND
TAF AMD
KIND 310218Z 3102/0106 16003KT P6SM FEW250
     FM311400 22010KT P6SM BKN250
     FM312100 22010KT P6SM OVC080=



000
FTUS43 KIND 302300
TAFIND
TAF
KIND 302324Z 3100/0106 35004KT P6SM FEW250
     FM311400 22010KT P6SM BKN250
     FM312100 22010KT P6SM OVC080=



000
FTUS43 KIND 302300
TAFLAF
TAF
KLAF 302324Z 3100/3124 30003KT P6SM FEW250
     FM311400 21010KT P6SM BKN250
     FM312100 22010KT P6SM OVC080
      AMD LTD TO CLD VIS AND WIND 3102/3114=



000
FTUS43 KIND 302000 AAA
TAFIND
TAF AMD
KIND 302026Z 3020/3124 36010KT P6SM BKN035
     FM302300 31004KT P6SM SCT040
     FM310300 00000KT P6SM SCT250
     FM310800 20006KT P6SM SCT250
     FM311900 21010KT P6SM BKN035=



000
FTUS43 KIND 301700
TAFIND
TAF
KIND 301726Z 3018/3124 36010KT P6SM BKN035
     FM302300 31004KT P6SM SCT040
     FM310300 00000KT P6SM SCT250
     FM310800 20006KT P6SM SCT250
     FM311900 21010KT P6SM BKN035=



000
FTUS43 KIND 301700
TAFLAF
TAF
KLAF 301726Z 3018/3118 34009KT P6SM BKN035
     FM310100 29004KT P6SM SCT035 SCT250
     FM310400 VRB03KT P6SM SCT250
     FM311700 23008KT P6SM SCT035=



000
FTUS43 KIND 301400 AAB
TAFIND
TAF AMD
KIND 301427Z 3014/3118 34013KT P6SM FEW030
     FM301600 34012KT P6SM BKN040
     FM302300 32005KT P6SM SCT040
     FM310300 00000KT P6SM SCT250
     FM310800 20004KT P6SM SCT250=



000
FTUS43 KIND 301200 AAA
TAFIND
TAF AMD
KIND 301234Z 3013/3118 34013KT 6SM -SHSN SCT025 OVC040
     FM301500 34012KT P6SM BKN045
     FM302300 32005KT P6SM SCT040
     FM310300 00000KT P6SM SCT250
     FM310800 20004KT P6SM SCT250=



000
FTUS43 KIND 301100
TAFLAF
TAF
KLAF 301130Z 3012/3112 31012G21KT P6SM BKN035
     FM301500 34012KT P6SM BKN035
     FM310100 29004KT P6SM SCT035 SCT250
     FM310400 VRB03KT P6SM SCT250
      AMD LTD TO CLD VIS AND WIND TIL 301400=



000
FTUS43 KIND 301100
TAFIND
TAF
KIND 301130Z 3012/3118 32013KT 6SM -SHSN SCT015 BKN025 OVC040
     FM301500 34012KT P6SM SCT025 BKN035
     FM302300 32005KT P6SM BKN040
     FM310300 00000KT P6SM SCT035 SCT250
     FM310800 20004KT P6SM SCT250=



000
FTUS43 KIND 301000 AAB
TAFIND
TAF AMD
KIND 301016Z 3010/3112 32013KT 6SM -SHSN OVC035
     FM301500 34012KT P6SM BKN035
     FM302300 32006KT P6SM BKN035
     FM310300 00000KT P6SM SCT035 SCT250=



000
FTUS43 KIND 300800 AAA
TAFIND
TAF AMD
KIND 300830Z 3009/3112 32013KT P6SM OVC035
     FM301500 34012KT P6SM BKN035
     FM302300 32006KT P6SM BKN035
     FM310300 00000KT P6SM SCT035 SCT250=



000
FTUS43 KIND 300500
TAFLAF
TAF
KLAF 300533Z 3006/3106 31014G21KT P6SM OVC035
     FM301500 34012KT P6SM BKN035
     FM310100 29004KT P6SM SCT035 SCT250
      AMD LTD TO CLD VIS AND WIND TIL 301400=



000
FTUS43 KIND 300500
TAFIND
TAF
KIND 300533Z 3006/3112 30015G22KT P6SM OVC030
     FM301500 34012KT P6SM BKN035
     FM302300 32006KT P6SM BKN035
     FM310300 00000KT P6SM SCT035 SCT250=



000
FTUS43 KIND 300200 AAA
TAFIND
TAF AMD
KIND 300227Z 3002/3106 30014G20KT P6SM OVC015
     FM300600 32015G23KT P6SM OVC025
     FM301500 35013KT P6SM BKN025=



000
FTUS43 KIND 300100 AAA
TAFLAF
TAF AMD
KLAF 300152Z 3002/3024 31013KT P6SM OVC030
     FM301500 34013KT P6SM BKN025
      AMD LTD TO CLD VIS AND WIND 3002/3014=



000
FTUS43 KIND 292300
TAFLAF
TAF
KLAF 292322Z 3000/3024 31015G23KT P6SM OVC015
     FM300400 32015G23KT P6SM OVC025
     FM301500 34013KT P6SM BKN025
      AMD LTD TO CLD VIS AND WIND 3002/3014=



000
FTUS43 KIND 292300
TAFIND
TAF
KIND 292322Z 3000/3106 30015G23KT P6SM OVC015
      TEMPO 3000/3002 4SM -DZ
     FM300600 32015G23KT P6SM OVC025
     FM301500 35013KT P6SM BKN025=



000
FTUS43 KIND 291800 AAA
TAFIND
TAF AMD
KIND 291859Z 2919/3024 28020G28KT 2SM -DZ BR OVC010
     FM292000 30015G25KT 5SM BR OVC015
     FM301500 34012G20KT P6SM BKN020
     FM302100 33008KT P6SM BKN030=



    US Dept of Commerce
    National Oceanic and Atmospheric Administration
    National Weather Service
    1325 East West Highway
    Silver Spring, MD 20910
    Page Author: NWS Internet Services Team
Disclaimer
Information Quality
Credits
Glossary
Privacy Policy
Freedom of Information Act (FOIA)
About Us
Career Opportunities